sensor_id;sensor_type;location;lat;lon;timestamp;temperature;humidity
49531;DHT22;74875;30.696;104.060;2024-01-30T00:00:43;15.60;63.30
49531;DHT22;74875;30.696;104.060;2024-01-30T00:03:10;16.40;77.40
49531;DHT22;74875;30.696;104.060;2024-01-30T00:05:37;15.50;61.30
49531;DHT22;74875;30.696;104.060;2024-01-30T00:08:06;15.50;61.20
49531;DHT22;74875;30.696;104.060;2024-01-30T00:10:33;15.30;76.70
49531;DHT22;74875;30.696;104.060;2024-01-30T00:15:27;15.40;64.80
49531;DHT22;74875;30.696;104.060;2024-01-30T00:17:54;15.50;68.10
49531;DHT22;74875;30.696;104.060;2024-01-30T00:20:21;15.60;61.20
49531;DHT22;74875;30.696;104.060;2024-01-30T00:22:49;15.50;61.20
49531;DHT22;74875;30.696;104.060;2024-01-30T00:25:16;15.60;61.20
49531;DHT22;74875;30.696;104.060;2024-01-30T00:27:45;15.50;61.20
49531;DHT22;74875;30.696;104.060;2024-01-30T00:30:13;15.70;76.40
49531;DHT22;74875;30.696;104.060;2024-01-30T00:35:07;15.20;74.40
49531;DHT22;74875;30.696;104.060;2024-01-30T00:37:36;15.60;61.20
49531;DHT22;74875;30.696;104.060;2024-01-30T00:40:04;15.70;61.40
49531;DHT22;74875;30.696;104.060;2024-01-30T00:42:32;15.80;61.40
49531;DHT22;74875;30.696;104.060;2024-01-30T00:44:59;15.90;61.10
49531;DHT22;74875;30.696;104.060;2024-01-30T00:47:29;16.30;60.60
49531;DHT22;74875;30.696;104.060;2024-01-30T00:49:56;16.40;62.00
49531;DHT22;74875;30.696;104.060;2024-01-30T00:54:50;17.00;68.60
49531;DHT22;74875;30.696;104.060;2024-01-30T00:57:17;17.00;58.70
49531;DHT22;74875;30.696;104.060;2024-01-30T00:59:44;17.20;65.20
49531;DHT22;74875;30.696;104.060;2024-01-30T01:02:11;17.80;58.40
49531;DHT22;74875;30.696;104.060;2024-01-30T01:04:38;16.80;70.30
49531;DHT22;74875;30.696;104.060;2024-01-30T01:09:32;17.80;56.80
49531;DHT22;74875;30.696;104.060;2024-01-30T01:11:59;18.00;67.40
49531;DHT22;74875;30.696;104.060;2024-01-30T01:14:27;17.90;58.60
49531;DHT22;74875;30.696;104.060;2024-01-30T01:16:54;18.10;56.20
49531;DHT22;74875;30.696;104.060;2024-01-30T01:19:21;18.10;56.10
49531;DHT22;74875;30.696;104.060;2024-01-30T01:24:15;18.10;56.10
49531;DHT22;74875;30.696;104.060;2024-01-30T01:29:09;18.10;56.00
49531;DHT22;74875;30.696;104.060;2024-01-30T01:34:12;18.00;64.70
49531;DHT22;74875;30.696;104.060;2024-01-30T01:41:34;18.10;56.20
49531;DHT22;74875;30.696;104.060;2024-01-30T01:44:02;18.20;58.20
49531;DHT22;74875;30.696;104.060;2024-01-30T01:46:32;18.20;55.80
49531;DHT22;74875;30.696;104.060;2024-01-30T01:49:01;18.20;55.50
49531;DHT22;74875;30.696;104.060;2024-01-30T01:51:31;15.10;54.20
49531;DHT22;74875;30.696;104.060;2024-01-30T01:54:03;18.30;55.90
49531;DHT22;74875;30.696;104.060;2024-01-30T01:56:32;18.30;55.80
49531;DHT22;74875;30.696;104.060;2024-01-30T01:59:07;18.40;55.50
49531;DHT22;74875;30.696;104.060;2024-01-30T02:04:04;18.40;55.30
49531;DHT22;74875;30.696;104.060;2024-01-30T02:06:33;18.40;56.60
49531;DHT22;74875;30.696;104.060;2024-01-30T02:09:00;18.40;55.30
49531;DHT22;74875;30.696;104.060;2024-01-30T02:11:28;18.30;55.50
49531;DHT22;74875;30.696;104.060;2024-01-30T02:13:56;18.30;55.60
49531;DHT22;74875;30.696;104.060;2024-01-30T02:16:23;18.30;55.40
49531;DHT22;74875;30.696;104.060;2024-01-30T02:21:17;18.30;55.50
49531;DHT22;74875;30.696;104.060;2024-01-30T02:26:14;18.50;54.90
49531;DHT22;74875;30.696;104.060;2024-01-30T02:28:41;18.50;55.20
49531;DHT22;74875;30.696;104.060;2024-01-30T02:31:08;18.60;68.30
49531;DHT22;74875;30.696;104.060;2024-01-30T02:33:35;18.60;56.00
49531;DHT22;74875;30.696;104.060;2024-01-30T02:36:02;18.70;57.70
49531;DHT22;74875;30.696;104.060;2024-01-30T02:38:29;18.70;55.60
49531;DHT22;74875;30.696;104.060;2024-01-30T02:40:56;18.70;69.80
49531;DHT22;74875;30.696;104.060;2024-01-30T02:45:51;20.10;57.00
49531;DHT22;74875;30.696;104.060;2024-01-30T02:48:18;18.60;56.20
49531;DHT22;74875;30.696;104.060;2024-01-30T02:50:45;18.70;56.70
49531;DHT22;74875;30.696;104.060;2024-01-30T02:55:40;18.80;56.90
49531;DHT22;74875;30.696;104.060;2024-01-30T03:05:29;19.20;57.80
49531;DHT22;74875;30.696;104.060;2024-01-30T03:07:56;18.90;57.10
49531;DHT22;74875;30.696;104.060;2024-01-30T03:10:23;19.00;57.20
49531;DHT22;74875;30.696;104.060;2024-01-30T03:12:50;19.00;57.20
49531;DHT22;74875;30.696;104.060;2024-01-30T03:15:17;18.90;60.60
49531;DHT22;74875;30.696;104.060;2024-01-30T03:17:44;19.00;57.60
49531;DHT22;74875;30.696;104.060;2024-01-30T03:20:12;19.00;57.70
49531;DHT22;74875;30.696;104.060;2024-01-30T03:22:39;18.80;64.50
49531;DHT22;74875;30.696;104.060;2024-01-30T03:25:06;19.20;71.20
49531;DHT22;74875;30.696;104.060;2024-01-30T03:27:33;19.10;57.70
49531;DHT22;74875;30.696;104.060;2024-01-30T03:30:00;19.10;57.50
49531;DHT22;74875;30.696;104.060;2024-01-30T03:32:28;19.20;57.40
49531;DHT22;74875;30.696;104.060;2024-01-30T03:37:22;19.30;57.30
49531;DHT22;74875;30.696;104.060;2024-01-30T03:39:49;19.30;57.00
49531;DHT22;74875;30.696;104.060;2024-01-30T03:42:16;19.30;68.90
49531;DHT22;74875;30.696;104.060;2024-01-30T03:44:43;19.20;56.80
49531;DHT22;74875;30.696;104.060;2024-01-30T03:47:11;18.70;62.40
49531;DHT22;74875;30.696;104.060;2024-01-30T03:54:32;19.20;56.10
49531;DHT22;74875;30.696;104.060;2024-01-30T03:59:26;19.20;59.30
49531;DHT22;74875;30.696;104.060;2024-01-30T04:01:53;19.10;56.20
49531;DHT22;74875;30.696;104.060;2024-01-30T04:04:21;19.50;70.20
49531;DHT22;74875;30.696;104.060;2024-01-30T04:06:48;19.10;56.80
49531;DHT22;74875;30.696;104.060;2024-01-30T04:09:15;19.20;56.80
49531;DHT22;74875;30.696;104.060;2024-01-30T04:11:42;19.70;55.50
49531;DHT22;74875;30.696;104.060;2024-01-30T04:16:36;19.40;54.60
49531;DHT22;74875;30.696;104.060;2024-01-30T04:19:03;19.20;53.30
49531;DHT22;74875;30.696;104.060;2024-01-30T04:23:58;19.30;53.80
49531;DHT22;74875;30.696;104.060;2024-01-30T04:28:52;19.30;52.80
49531;DHT22;74875;30.696;104.060;2024-01-30T04:33:47;19.20;53.30
49531;DHT22;74875;30.696;104.060;2024-01-30T04:36:14;19.10;53.30
49531;DHT22;74875;30.696;104.060;2024-01-30T04:53:23;19.30;53.30
49531;DHT22;74875;30.696;104.060;2024-01-30T04:55:50;19.40;64.40
49531;DHT22;74875;30.696;104.060;2024-01-30T04:58:17;19.30;53.00
49531;DHT22;74875;30.696;104.060;2024-01-30T05:00:44;19.40;52.60
49531;DHT22;74875;30.696;104.060;2024-01-30T05:03:12;19.40;52.40
49531;DHT22;74875;30.696;104.060;2024-01-30T05:05:40;19.40;52.10
49531;DHT22;74875;30.696;104.060;2024-01-30T05:08:07;19.40;65.70
49531;DHT22;74875;30.696;104.060;2024-01-30T05:10:34;19.20;52.60
49531;DHT22;74875;30.696;104.060;2024-01-30T05:13:01;19.20;52.80
49531;DHT22;74875;30.696;104.060;2024-01-30T05:15:28;19.20;53.00
49531;DHT22;74875;30.696;104.060;2024-01-30T05:17:55;19.10;52.90
49531;DHT22;74875;30.696;104.060;2024-01-30T05:20:22;19.00;52.60
49531;DHT22;74875;30.696;104.060;2024-01-30T05:25:16;19.10;52.30
49531;DHT22;74875;30.696;104.060;2024-01-30T05:27:43;19.20;52.10
49531;DHT22;74875;30.696;104.060;2024-01-30T05:30:11;19.20;58.50
49531;DHT22;74875;30.696;104.060;2024-01-30T05:32:38;19.60;51.90
49531;DHT22;74875;30.696;104.060;2024-01-30T05:35:05;19.30;53.10
49531;DHT22;74875;30.696;104.060;2024-01-30T05:37:34;19.30;52.90
49531;DHT22;74875;30.696;104.060;2024-01-30T05:40:01;19.50;63.60
49531;DHT22;74875;30.696;104.060;2024-01-30T05:42:28;19.40;51.90
49531;DHT22;74875;30.696;104.060;2024-01-30T05:44:55;19.40;52.00
49531;DHT22;74875;30.696;104.060;2024-01-30T05:47:23;19.40;52.00
49531;DHT22;74875;30.696;104.060;2024-01-30T05:49:50;19.40;52.00
49531;DHT22;74875;30.696;104.060;2024-01-30T05:52:17;19.80;64.60
49531;DHT22;74875;30.696;104.060;2024-01-30T05:57:12;19.30;54.20
49531;DHT22;74875;30.696;104.060;2024-01-30T06:04:33;18.90;65.30
49531;DHT22;74875;30.696;104.060;2024-01-30T06:09:28;19.40;51.70
49531;DHT22;74875;30.696;104.060;2024-01-30T06:11:58;19.30;51.40
49531;DHT22;74875;30.696;104.060;2024-01-30T06:16:52;19.60;51.30
49531;DHT22;74875;30.696;104.060;2024-01-30T06:19:19;19.60;51.30
49531;DHT22;74875;30.696;104.060;2024-01-30T06:21:46;19.60;51.40
49531;DHT22;74875;30.696;104.060;2024-01-30T06:24:14;19.60;51.30
49531;DHT22;74875;30.696;104.060;2024-01-30T06:26:41;19.70;51.20
49531;DHT22;74875;30.696;104.060;2024-01-30T06:29:08;19.70;51.50
49531;DHT22;74875;30.696;104.060;2024-01-30T06:34:10;19.60;52.20
49531;DHT22;74875;30.696;104.060;2024-01-30T06:41:33;19.60;53.40
49531;DHT22;74875;30.696;104.060;2024-01-30T06:44:02;19.60;53.30
49531;DHT22;74875;30.696;104.060;2024-01-30T06:51:28;19.80;52.90
49531;DHT22;74875;30.696;104.060;2024-01-30T06:53:55;19.80;52.70
49531;DHT22;74875;30.696;104.060;2024-01-30T06:56:22;19.80;54.50
49531;DHT22;74875;30.696;104.060;2024-01-30T06:58:50;19.90;52.60
49531;DHT22;74875;30.696;104.060;2024-01-30T07:01:17;19.90;52.70
49531;DHT22;74875;30.696;104.060;2024-01-30T07:06:11;19.80;52.90
49531;DHT22;74875;30.696;104.060;2024-01-30T07:08:38;19.70;53.20
49531;DHT22;74875;30.696;104.060;2024-01-30T07:11:06;19.60;64.30
49531;DHT22;74875;30.696;104.060;2024-01-30T07:16:02;19.50;53.30
49531;DHT22;74875;30.696;104.060;2024-01-30T07:20:56;19.40;53.50
49531;DHT22;74875;30.696;104.060;2024-01-30T07:23:23;19.20;53.50
49531;DHT22;74875;30.696;104.060;2024-01-30T07:28:17;19.30;53.70
49531;DHT22;74875;30.696;104.060;2024-01-30T07:30:44;19.20;53.90
49531;DHT22;74875;30.696;104.060;2024-01-30T07:35:38;19.40;54.50
49531;DHT22;74875;30.696;104.060;2024-01-30T07:50:44;18.80;54.80
49531;DHT22;74875;30.696;104.060;2024-01-30T07:53:11;18.50;61.50
49531;DHT22;74875;30.696;104.060;2024-01-30T07:55:38;19.70;56.40
49531;DHT22;74875;30.696;104.060;2024-01-30T07:58:08;18.60;68.90
49531;DHT22;74875;30.696;104.060;2024-01-30T08:00:36;18.60;55.40
49531;DHT22;74875;30.696;104.060;2024-01-30T08:03:06;18.50;68.90
49531;DHT22;74875;30.696;104.060;2024-01-30T08:05:33;18.50;55.50
49531;DHT22;74875;30.696;104.060;2024-01-30T08:08:00;18.50;55.70
49531;DHT22;74875;30.696;104.060;2024-01-30T08:10:28;18.40;55.70
49531;DHT22;74875;30.696;104.060;2024-01-30T08:17:49;18.30;56.00
49531;DHT22;74875;30.696;104.060;2024-01-30T08:20:22;18.40;56.00
49531;DHT22;74875;30.696;104.060;2024-01-30T08:25:17;18.30;56.20
49531;DHT22;74875;30.696;104.060;2024-01-30T08:27:44;18.20;56.30
49531;DHT22;74875;30.696;104.060;2024-01-30T08:35:06;18.20;56.40
49531;DHT22;74875;30.696;104.060;2024-01-30T08:37:34;18.10;56.60
49531;DHT22;74875;30.696;104.060;2024-01-30T08:42:30;17.50;57.20
49531;DHT22;74875;30.696;104.060;2024-01-30T08:44:58;18.00;56.70
49531;DHT22;74875;30.696;104.060;2024-01-30T08:47:25;18.00;56.60
49531;DHT22;74875;30.696;104.060;2024-01-30T08:49:52;18.10;56.70
49531;DHT22;74875;30.696;104.060;2024-01-30T08:52:19;18.00;56.60
49531;DHT22;74875;30.696;104.060;2024-01-30T08:54:46;17.40;66.80
49531;DHT22;74875;30.696;104.060;2024-01-30T08:57:13;17.70;62.90
49531;DHT22;74875;30.696;104.060;2024-01-30T08:59:40;17.90;56.60
49531;DHT22;74875;30.696;104.060;2024-01-30T09:02:10;17.90;56.70
49531;DHT22;74875;30.696;104.060;2024-01-30T09:04:39;18.60;71.10
49531;DHT22;74875;30.696;104.060;2024-01-30T09:07:41;17.80;57.00
49531;DHT22;74875;30.696;104.060;2024-01-30T09:12:36;17.10;67.80
49531;DHT22;74875;30.696;104.060;2024-01-30T09:19:59;17.00;71.00
49531;DHT22;74875;30.696;104.060;2024-01-30T09:22:26;17.20;70.30
49531;DHT22;74875;30.696;104.060;2024-01-30T09:24:53;17.80;57.00
49531;DHT22;74875;30.696;104.060;2024-01-30T09:27:22;17.70;57.10
49531;DHT22;74875;30.696;104.060;2024-01-30T09:32:16;17.10;63.70
49531;DHT22;74875;30.696;104.060;2024-01-30T09:34:52;17.70;57.20
49531;DHT22;74875;30.696;104.060;2024-01-30T09:37:19;17.70;57.10
49531;DHT22;74875;30.696;104.060;2024-01-30T09:39:47;17.80;70.70
49531;DHT22;74875;30.696;104.060;2024-01-30T09:45:14;16.90;57.00
49531;DHT22;74875;30.696;104.060;2024-01-30T09:47:42;17.80;65.10
49531;DHT22;74875;30.696;104.060;2024-01-30T09:53:00;17.50;57.50
49531;DHT22;74875;30.696;104.060;2024-01-30T09:57:55;18.20;64.30
49531;DHT22;74875;30.696;104.060;2024-01-30T10:00:23;17.60;57.50
49531;DHT22;74875;30.696;104.060;2024-01-30T10:02:54;17.60;57.60
49531;DHT22;74875;30.696;104.060;2024-01-30T10:05:22;17.70;59.60
49531;DHT22;74875;30.696;104.060;2024-01-30T10:07:54;17.60;57.80
49531;DHT22;74875;30.696;104.060;2024-01-30T10:10:23;17.50;57.80
49531;DHT22;74875;30.696;104.060;2024-01-30T10:15:20;17.60;57.80
49531;DHT22;74875;30.696;104.060;2024-01-30T10:17:49;17.50;57.70
49531;DHT22;74875;30.696;104.060;2024-01-30T10:20:16;17.50;57.80
49531;DHT22;74875;30.696;104.060;2024-01-30T10:25:14;17.00;71.40
49531;DHT22;74875;30.696;104.060;2024-01-30T10:27:42;19.20;58.90
49531;DHT22;74875;30.696;104.060;2024-01-30T10:30:10;17.40;58.10
49531;DHT22;74875;30.696;104.060;2024-01-30T10:32:37;17.30;72.70
49531;DHT22;74875;30.696;104.060;2024-01-30T10:35:05;17.50;72.40
49531;DHT22;74875;30.696;104.060;2024-01-30T10:37:32;17.30;58.10
49531;DHT22;74875;30.696;104.060;2024-01-30T10:40:05;17.30;58.20
49531;DHT22;74875;30.696;104.060;2024-01-30T10:42:37;17.40;58.20
49531;DHT22;74875;30.696;104.060;2024-01-30T10:45:12;17.50;58.20
49531;DHT22;74875;30.696;104.060;2024-01-30T10:47:56;17.50;58.20
49531;DHT22;74875;30.696;104.060;2024-01-30T10:50:25;16.90;71.90
49531;DHT22;74875;30.696;104.060;2024-01-30T10:52:55;17.90;73.10
49531;DHT22;74875;30.696;104.060;2024-01-30T10:55:23;17.60;58.10
49531;DHT22;74875;30.696;104.060;2024-01-30T10:57:50;17.70;58.10
49531;DHT22;74875;30.696;104.060;2024-01-30T11:00:18;17.50;72.70
49531;DHT22;74875;30.696;104.060;2024-01-30T11:02:49;17.00;72.40
49531;DHT22;74875;30.696;104.060;2024-01-30T11:07:53;17.60;58.50
49531;DHT22;74875;30.696;104.060;2024-01-30T11:10:20;16.90;73.00
49531;DHT22;74875;30.696;104.060;2024-01-30T11:12:47;17.60;58.40
49531;DHT22;74875;30.696;104.060;2024-01-30T11:15:17;17.70;61.80
49531;DHT22;74875;30.696;104.060;2024-01-30T11:20:22;17.60;58.20
49531;DHT22;74875;30.696;104.060;2024-01-30T11:22:53;17.70;58.30
49531;DHT22;74875;30.696;104.060;2024-01-30T11:25:21;17.70;58.20
49531;DHT22;74875;30.696;104.060;2024-01-30T11:27:54;17.70;58.20
49531;DHT22;74875;30.696;104.060;2024-01-30T11:30:30;17.70;58.20
49531;DHT22;74875;30.696;104.060;2024-01-30T11:33:27;17.70;58.00
49531;DHT22;74875;30.696;104.060;2024-01-30T11:35:54;17.50;60.90
49531;DHT22;74875;30.696;104.060;2024-01-30T11:38:22;17.80;57.90
49531;DHT22;74875;30.696;104.060;2024-01-30T11:40:50;18.50;72.30
49531;DHT22;74875;30.696;104.060;2024-01-30T11:43:18;17.80;57.70
49531;DHT22;74875;30.696;104.060;2024-01-30T11:45:46;17.20;63.10
49531;DHT22;74875;30.696;104.060;2024-01-30T11:48:13;17.70;57.80
49531;DHT22;74875;30.696;104.060;2024-01-30T11:50:41;17.70;57.80
49531;DHT22;74875;30.696;104.060;2024-01-30T11:53:08;17.80;57.90
49531;DHT22;74875;30.696;104.060;2024-01-30T11:55:36;17.70;57.80
49531;DHT22;74875;30.696;104.060;2024-01-30T11:58:04;17.80;57.80
49531;DHT22;74875;30.696;104.060;2024-01-30T12:00:31;17.80;57.80
49531;DHT22;74875;30.696;104.060;2024-01-30T12:02:59;17.80;57.90
49531;DHT22;74875;30.696;104.060;2024-01-30T12:10:25;17.90;57.80
49531;DHT22;74875;30.696;104.060;2024-01-30T12:12:53;17.90;57.70
49531;DHT22;74875;30.696;104.060;2024-01-30T12:15:22;17.80;72.30
49531;DHT22;74875;30.696;104.060;2024-01-30T12:17:49;17.90;57.70
49531;DHT22;74875;30.696;104.060;2024-01-30T12:20:19;18.20;73.10
49531;DHT22;74875;30.696;104.060;2024-01-30T12:22:48;17.70;57.60
49531;DHT22;74875;30.696;104.060;2024-01-30T12:25:17;17.90;57.70
49531;DHT22;74875;30.696;104.060;2024-01-30T12:30:19;18.70;61.50
49531;DHT22;74875;30.696;104.060;2024-01-30T12:33:08;17.90;57.80
49531;DHT22;74875;30.696;104.060;2024-01-30T12:35:36;17.90;57.80
49531;DHT22;74875;30.696;104.060;2024-01-30T12:38:03;17.90;57.50
49531;DHT22;74875;30.696;104.060;2024-01-30T12:40:34;18.00;57.70
49531;DHT22;74875;30.696;104.060;2024-01-30T12:45:56;17.40;70.60
49531;DHT22;74875;30.696;104.060;2024-01-30T12:48:23;18.00;57.50
49531;DHT22;74875;30.696;104.060;2024-01-30T12:50:50;18.00;57.70
49531;DHT22;74875;30.696;104.060;2024-01-30T12:53:17;17.40;70.90
49531;DHT22;74875;30.696;104.060;2024-01-30T12:55:44;17.30;70.80
49531;DHT22;74875;30.696;104.060;2024-01-30T12:58:11;18.10;72.50
49531;DHT22;74875;30.696;104.060;2024-01-30T13:00:39;18.30;61.90
49531;DHT22;74875;30.696;104.060;2024-01-30T13:03:06;17.20;65.00
49531;DHT22;74875;30.696;104.060;2024-01-30T13:05:33;17.20;71.30
49531;DHT22;74875;30.696;104.060;2024-01-30T13:08:00;18.00;57.60
49531;DHT22;74875;30.696;104.060;2024-01-30T13:10:27;17.90;71.10
49531;DHT22;74875;30.696;104.060;2024-01-30T13:12:54;17.80;59.30
49531;DHT22;74875;30.696;104.060;2024-01-30T13:15:21;18.10;71.50
49531;DHT22;74875;30.696;104.060;2024-01-30T13:17:49;18.00;57.30
49531;DHT22;74875;30.696;104.060;2024-01-30T13:20:17;18.70;71.60
49531;DHT22;74875;30.696;104.060;2024-01-30T13:22:47;17.60;70.60
49531;DHT22;74875;30.696;104.060;2024-01-30T13:25:16;18.10;57.20
49531;DHT22;74875;30.696;104.060;2024-01-30T13:27:43;18.10;57.30
49531;DHT22;74875;30.696;104.060;2024-01-30T13:30:10;18.00;63.10
49531;DHT22;74875;30.696;104.060;2024-01-30T13:35:07;18.60;58.20
49531;DHT22;74875;30.696;104.060;2024-01-30T13:37:35;18.10;58.10
49531;DHT22;74875;30.696;104.060;2024-01-30T13:40:05;18.10;58.10
49531;DHT22;74875;30.696;104.060;2024-01-30T13:42:35;18.10;58.20
49531;DHT22;74875;30.696;104.060;2024-01-30T13:47:29;18.10;58.20
49531;DHT22;74875;30.696;104.060;2024-01-30T13:49:56;18.10;58.20
49531;DHT22;74875;30.696;104.060;2024-01-30T13:52:24;18.10;58.40
49531;DHT22;74875;30.696;104.060;2024-01-30T13:54:51;18.10;58.40
49531;DHT22;74875;30.696;104.060;2024-01-30T13:57:18;18.10;58.40
49531;DHT22;74875;30.696;104.060;2024-01-30T13:59:45;18.70;72.70
49531;DHT22;74875;30.696;104.060;2024-01-30T14:02:13;18.10;58.40
49531;DHT22;74875;30.696;104.060;2024-01-30T14:04:40;18.30;59.30
49531;DHT22;74875;30.696;104.060;2024-01-30T14:12:01;18.00;72.40
49531;DHT22;74875;30.696;104.060;2024-01-30T14:14:28;18.10;58.40
49531;DHT22;74875;30.696;104.060;2024-01-30T14:16:55;18.10;58.40
49531;DHT22;74875;30.696;104.060;2024-01-30T14:19:22;18.10;58.60
49531;DHT22;74875;30.696;104.060;2024-01-30T14:21:49;18.10;58.50
49531;DHT22;74875;30.696;104.060;2024-01-30T14:24:16;18.10;58.50
49531;DHT22;74875;30.696;104.060;2024-01-30T14:26:44;18.70;73.50
49531;DHT22;74875;30.696;104.060;2024-01-30T14:29:11;18.10;58.50
49531;DHT22;74875;30.696;104.060;2024-01-30T14:31:39;18.10;73.50
49531;DHT22;74875;30.696;104.060;2024-01-30T14:34:06;17.70;65.50
49531;DHT22;74875;30.696;104.060;2024-01-30T14:36:35;18.10;63.30
49531;DHT22;74875;30.696;104.060;2024-01-30T14:39:02;18.20;67.70
49531;DHT22;74875;30.696;104.060;2024-01-30T14:41:30;18.10;58.40
49531;DHT22;74875;30.696;104.060;2024-01-30T14:43:57;18.10;58.40
49531;DHT22;74875;30.696;104.060;2024-01-30T14:46:24;18.10;58.40
49531;DHT22;74875;30.696;104.060;2024-01-30T14:48:53;18.10;58.50
49531;DHT22;74875;30.696;104.060;2024-01-30T14:53:48;18.20;58.30
49531;DHT22;74875;30.696;104.060;2024-01-30T14:56:15;18.30;65.00
49531;DHT22;74875;30.696;104.060;2024-01-30T14:58:42;18.70;64.60
49531;DHT22;74875;30.696;104.060;2024-01-30T15:01:12;14.50;56.30
49531;DHT22;74875;30.696;104.060;2024-01-30T15:03:40;18.20;58.20
49531;DHT22;74875;30.696;104.060;2024-01-30T15:08:36;18.10;62.10
49531;DHT22;74875;30.696;104.060;2024-01-30T15:15:59;18.20;58.30
49531;DHT22;74875;30.696;104.060;2024-01-30T15:20:53;17.60;58.00
49531;DHT22;74875;30.696;104.060;2024-01-30T15:23:20;18.40;60.30
49531;DHT22;74875;30.696;104.060;2024-01-30T15:25:47;18.30;58.30
49531;DHT22;74875;30.696;104.060;2024-01-30T15:28:14;18.70;69.10
49531;DHT22;74875;30.696;104.060;2024-01-30T15:30:41;18.30;58.60
49531;DHT22;74875;30.696;104.060;2024-01-30T15:33:10;18.50;72.90
49531;DHT22;74875;30.696;104.060;2024-01-30T15:35:37;18.30;74.00
49531;DHT22;74875;30.696;104.060;2024-01-30T15:38:06;18.10;73.00
49531;DHT22;74875;30.696;104.060;2024-01-30T15:40:49;17.60;71.60
49531;DHT22;74875;30.696;104.060;2024-01-30T15:43:17;18.20;59.10
49531;DHT22;74875;30.696;104.060;2024-01-30T15:45:44;18.20;74.30
49531;DHT22;74875;30.696;104.060;2024-01-30T15:48:14;18.20;59.00
49531;DHT22;74875;30.696;104.060;2024-01-30T15:50:43;17.60;73.10
49531;DHT22;74875;30.696;104.060;2024-01-30T15:53:32;18.20;58.80
49531;DHT22;74875;30.696;104.060;2024-01-30T15:55:59;18.30;73.00
49531;DHT22;74875;30.696;104.060;2024-01-30T15:58:26;17.40;72.30
49531;DHT22;74875;30.696;104.060;2024-01-30T16:00:53;18.20;58.80
49531;DHT22;74875;30.696;104.060;2024-01-30T16:03:20;18.20;58.60
49531;DHT22;74875;30.696;104.060;2024-01-30T16:06:04;17.60;69.90
49531;DHT22;74875;30.696;104.060;2024-01-30T16:08:34;17.50;72.70
49531;DHT22;74875;30.696;104.060;2024-01-30T16:11:01;18.30;69.80
49531;DHT22;74875;30.696;104.060;2024-01-30T16:13:47;18.20;58.60
49531;DHT22;74875;30.696;104.060;2024-01-30T16:16:18;18.20;58.60
49531;DHT22;74875;30.696;104.060;2024-01-30T16:18:45;18.80;73.20
49531;DHT22;74875;30.696;104.060;2024-01-30T16:21:13;18.20;58.60
49531;DHT22;74875;30.696;104.060;2024-01-30T16:23:43;18.60;64.10
49531;DHT22;74875;30.696;104.060;2024-01-30T16:26:10;17.80;72.50
49531;DHT22;74875;30.696;104.060;2024-01-30T16:28:37;18.20;58.60
49531;DHT22;74875;30.696;104.060;2024-01-30T16:31:09;18.10;58.70
49531;DHT22;74875;30.696;104.060;2024-01-30T16:33:44;18.10;73.70
49531;DHT22;74875;30.696;104.060;2024-01-30T16:36:11;18.00;58.70
49531;DHT22;74875;30.696;104.060;2024-01-30T16:38:40;18.00;73.60
49531;DHT22;74875;30.696;104.060;2024-01-30T16:41:07;18.00;58.60
49531;DHT22;74875;30.696;104.060;2024-01-30T16:43:35;18.10;58.50
49531;DHT22;74875;30.696;104.060;2024-01-30T16:46:02;18.30;68.50
49531;DHT22;74875;30.696;104.060;2024-01-30T16:48:29;18.10;58.50
49531;DHT22;74875;30.696;104.060;2024-01-30T16:50:56;18.30;58.80
49531;DHT22;74875;30.696;104.060;2024-01-30T16:53:23;17.80;58.40
49531;DHT22;74875;30.696;104.060;2024-01-30T16:55:50;17.60;58.20
49531;DHT22;74875;30.696;104.060;2024-01-30T16:58:17;18.00;58.40
49531;DHT22;74875;30.696;104.060;2024-01-30T17:00:45;18.00;58.50
49531;DHT22;74875;30.696;104.060;2024-01-30T17:03:12;18.70;74.20
49531;DHT22;74875;30.696;104.060;2024-01-30T17:05:39;17.30;60.30
49531;DHT22;74875;30.696;104.060;2024-01-30T17:08:06;18.00;58.40
49531;DHT22;74875;30.696;104.060;2024-01-30T17:13:00;17.80;59.60
49531;DHT22;74875;30.696;104.060;2024-01-30T17:15:27;17.90;72.70
49531;DHT22;74875;30.696;104.060;2024-01-30T17:17:54;17.30;65.00
49531;DHT22;74875;30.696;104.060;2024-01-30T17:20:21;17.20;61.90
49531;DHT22;74875;30.696;104.060;2024-01-30T17:22:49;18.10;68.00
49531;DHT22;74875;30.696;104.060;2024-01-30T17:25:16;17.90;58.40
49531;DHT22;74875;30.696;104.060;2024-01-30T17:27:43;17.80;58.90
49531;DHT22;74875;30.696;104.060;2024-01-30T17:30:12;18.00;61.40
49531;DHT22;74875;30.696;104.060;2024-01-30T17:32:40;17.90;58.40
49531;DHT22;74875;30.696;104.060;2024-01-30T17:35:07;18.00;69.90
49531;DHT22;74875;30.696;104.060;2024-01-30T17:37:35;17.90;58.40
49531;DHT22;74875;30.696;104.060;2024-01-30T17:40:05;17.30;72.20
49531;DHT22;74875;30.696;104.060;2024-01-30T17:45:00;18.00;73.60
49531;DHT22;74875;30.696;104.060;2024-01-30T17:47:28;17.80;58.50
49531;DHT22;74875;30.696;104.060;2024-01-30T17:49:57;17.90;58.40
49531;DHT22;74875;30.696;104.060;2024-01-30T17:52:24;17.90;58.40
49531;DHT22;74875;30.696;104.060;2024-01-30T17:54:51;18.00;72.80
49531;DHT22;74875;30.696;104.060;2024-01-30T17:57:18;17.50;66.80
49531;DHT22;74875;30.696;104.060;2024-01-30T17:59:45;17.90;58.40
49531;DHT22;74875;30.696;104.060;2024-01-30T18:04:41;17.80;58.40
49531;DHT22;74875;30.696;104.060;2024-01-30T18:07:09;17.30;65.10
49531;DHT22;74875;30.696;104.060;2024-01-30T18:09:36;17.70;58.30
49531;DHT22;74875;30.696;104.060;2024-01-30T18:12:05;17.80;58.40
49531;DHT22;74875;30.696;104.060;2024-01-30T18:14:35;17.40;67.30
49531;DHT22;74875;30.696;104.060;2024-01-30T18:17:03;17.80;58.40
49531;DHT22;74875;30.696;104.060;2024-01-30T18:19:30;17.80;58.40
49531;DHT22;74875;30.696;104.060;2024-01-30T18:21:57;17.80;60.30
49531;DHT22;74875;30.696;104.060;2024-01-30T18:24:24;17.70;58.50
49531;DHT22;74875;30.696;104.060;2024-01-30T18:26:53;17.40;58.40
49531;DHT22;74875;30.696;104.060;2024-01-30T18:29:21;17.70;73.70
49531;DHT22;74875;30.696;104.060;2024-01-30T18:31:48;17.70;72.30
49531;DHT22;74875;30.696;104.060;2024-01-30T18:34:16;17.70;58.60
49531;DHT22;74875;30.696;104.060;2024-01-30T18:36:43;17.50;73.30
49531;DHT22;74875;30.696;104.060;2024-01-30T18:39:10;17.50;73.40